sensor_id;sensor_type;location;lat;lon;timestamp;temperature;humidity
12604;DHT22;6367;52.508;13.284;2023-04-03T00:01:37;6.60;89.40
12604;DHT22;6367;52.508;13.284;2023-04-03T00:04:06;6.00;88.80
12604;DHT22;6367;52.508;13.284;2023-04-03T00:06:32;6.00;88.60
12604;DHT22;6367;52.508;13.284;2023-04-03T00:08:58;6.00;88.20
12604;DHT22;6367;52.508;13.284;2023-04-03T00:11:24;6.70;88.70
12604;DHT22;6367;52.508;13.284;2023-04-03T00:13:51;6.00;88.40
12604;DHT22;6367;52.508;13.284;2023-04-03T00:16:16;6.00;88.90
12604;DHT22;6367;52.508;13.284;2023-04-03T00:18:42;6.70;89.60
12604;DHT22;6367;52.508;13.284;2023-04-03T00:21:10;6.00;88.10
12604;DHT22;6367;52.508;13.284;2023-04-03T00:23:37;5.80;88.70
12604;DHT22;6367;52.508;13.284;2023-04-03T00:26:03;5.80;89.00
12604;DHT22;6367;52.508;13.284;2023-04-03T00:28:29;5.80;89.20
12604;DHT22;6367;52.508;13.284;2023-04-03T00:30:54;5.80;88.50
12604;DHT22;6367;52.508;13.284;2023-04-03T00:33:20;5.70;88.80
12604;DHT22;6367;52.508;13.284;2023-04-03T00:35:47;6.50;89.80
12604;DHT22;6367;52.508;13.284;2023-04-03T00:38:14;6.50;89.60
12604;DHT22;6367;52.508;13.284;2023-04-03T00:40:43;5.80;88.90
12604;DHT22;6367;52.508;13.284;2023-04-03T00:43:15;5.90;88.80
12604;DHT22;6367;52.508;13.284;2023-04-03T00:45:47;6.40;89.30
12604;DHT22;6367;52.508;13.284;2023-04-03T00:48:17;4.90;87.30
12604;DHT22;6367;52.508;13.284;2023-04-03T00:50:44;6.40;89.00
12604;DHT22;6367;52.508;13.284;2023-04-03T00:53:17;6.00;88.70
12604;DHT22;6367;52.508;13.284;2023-04-03T00:55:46;5.90;88.70
12604;DHT22;6367;52.508;13.284;2023-04-03T00:58:12;6.00;88.80
12604;DHT22;6367;52.508;13.284;2023-04-03T01:00:43;6.10;89.60
12604;DHT22;6367;52.508;13.284;2023-04-03T01:03:10;6.10;88.60
12604;DHT22;6367;52.508;13.284;2023-04-03T01:05:36;6.10;88.60
12604;DHT22;6367;52.508;13.284;2023-04-03T01:08:02;6.10;88.50
12604;DHT22;6367;52.508;13.284;2023-04-03T01:10:27;6.10;88.50
12604;DHT22;6367;52.508;13.284;2023-04-03T01:12:53;6.10;88.40
12604;DHT22;6367;52.508;13.284;2023-04-03T01:15:24;6.10;88.20
12604;DHT22;6367;52.508;13.284;2023-04-03T01:17:53;6.20;88.30
12604;DHT22;6367;52.508;13.284;2023-04-03T01:25:52;6.00;88.30
12604;DHT22;6367;52.508;13.284;2023-04-03T01:28:20;6.00;88.40
12604;DHT22;6367;52.508;13.284;2023-04-03T01:30:51;6.00;88.50
12604;DHT22;6367;52.508;13.284;2023-04-03T01:33:18;6.00;88.70
12604;DHT22;6367;52.508;13.284;2023-04-03T01:35:44;6.00;88.70
12604;DHT22;6367;52.508;13.284;2023-04-03T01:38:10;6.10;88.70
12604;DHT22;6367;52.508;13.284;2023-04-03T01:40:36;6.10;88.70
12604;DHT22;6367;52.508;13.284;2023-04-03T01:43:01;6.10;88.50
12604;DHT22;6367;52.508;13.284;2023-04-03T01:45:27;6.10;88.60
12604;DHT22;6367;52.508;13.284;2023-04-03T01:47:53;6.10;88.70
12604;DHT22;6367;52.508;13.284;2023-04-03T01:50:18;6.20;88.20
12604;DHT22;6367;52.508;13.284;2023-04-03T01:52:44;6.00;88.30
12604;DHT22;6367;52.508;13.284;2023-04-03T01:55:09;6.00;88.60
12604;DHT22;6367;52.508;13.284;2023-04-03T01:57:35;6.00;88.40
12604;DHT22;6367;52.508;13.284;2023-04-03T02:00:01;6.50;89.20
12604;DHT22;6367;52.508;13.284;2023-04-03T02:02:26;6.00;88.70
12604;DHT22;6367;52.508;13.284;2023-04-03T02:04:52;5.90;88.90
12604;DHT22;6367;52.508;13.284;2023-04-03T02:07:17;6.00;89.00
12604;DHT22;6367;52.508;13.284;2023-04-03T02:09:43;6.00;88.90
12604;DHT22;6367;52.508;13.284;2023-04-03T02:12:09;6.00;88.90
12604;DHT22;6367;52.508;13.284;2023-04-03T02:14:34;5.90;88.90
12604;DHT22;6367;52.508;13.284;2023-04-03T02:17:01;5.90;88.80
12604;DHT22;6367;52.508;13.284;2023-04-03T02:19:30;6.70;89.60
12604;DHT22;6367;52.508;13.284;2023-04-03T02:21:56;5.90;88.90
12604;DHT22;6367;52.508;13.284;2023-04-03T02:24:22;5.90;89.00
12604;DHT22;6367;52.508;13.284;2023-04-03T02:26:47;6.00;89.00
12604;DHT22;6367;52.508;13.284;2023-04-03T02:29:13;5.90;89.00
12604;DHT22;6367;52.508;13.284;2023-04-03T02:31:39;5.90;89.10
12604;DHT22;6367;52.508;13.284;2023-04-03T02:34:04;5.90;89.20
12604;DHT22;6367;52.508;13.284;2023-04-03T02:36:31;5.90;89.30
12604;DHT22;6367;52.508;13.284;2023-04-03T02:38:56;5.90;89.10
12604;DHT22;6367;52.508;13.284;2023-04-03T02:41:22;5.90;88.90
12604;DHT22;6367;52.508;13.284;2023-04-03T02:43:48;5.90;88.80
12604;DHT22;6367;52.508;13.284;2023-04-03T02:46:13;5.90;88.90
12604;DHT22;6367;52.508;13.284;2023-04-03T02:48:40;6.40;89.50
12604;DHT22;6367;52.508;13.284;2023-04-03T02:51:06;5.80;88.90
12604;DHT22;6367;52.508;13.284;2023-04-03T02:53:32;5.80;89.10
12604;DHT22;6367;52.508;13.284;2023-04-03T02:55:57;5.80;88.80
12604;DHT22;6367;52.508;13.284;2023-04-03T02:58:24;5.80;89.10
12604;DHT22;6367;52.508;13.284;2023-04-03T03:00:50;5.70;89.10
12604;DHT22;6367;52.508;13.284;2023-04-03T03:03:15;6.40;89.90
12604;DHT22;6367;52.508;13.284;2023-04-03T03:05:41;5.60;89.30
12604;DHT22;6367;52.508;13.284;2023-04-03T03:08:07;5.70;89.60
12604;DHT22;6367;52.508;13.284;2023-04-03T03:10:32;5.70;89.50
12604;DHT22;6367;52.508;13.284;2023-04-03T03:12:58;5.70;89.60
12604;DHT22;6367;52.508;13.284;2023-04-03T03:15:23;5.70;89.50
12604;DHT22;6367;52.508;13.284;2023-04-03T03:17:49;5.60;89.60
12604;DHT22;6367;52.508;13.284;2023-04-03T03:20:15;5.60;89.70
12604;DHT22;6367;52.508;13.284;2023-04-03T03:22:41;5.60;89.60
12604;DHT22;6367;52.508;13.284;2023-04-03T03:25:07;5.90;90.00
12604;DHT22;6367;52.508;13.284;2023-04-03T03:27:32;5.60;89.80
12604;DHT22;6367;52.508;13.284;2023-04-03T03:29:58;5.50;89.70
12604;DHT22;6367;52.508;13.284;2023-04-03T03:32:24;5.50;89.90
12604;DHT22;6367;52.508;13.284;2023-04-03T03:34:49;5.50;89.80
12604;DHT22;6367;52.508;13.284;2023-04-03T03:37:15;5.40;89.90
12604;DHT22;6367;52.508;13.284;2023-04-03T03:39:41;5.40;90.00
12604;DHT22;6367;52.508;13.284;2023-04-03T03:42:06;5.40;89.90
12604;DHT22;6367;52.508;13.284;2023-04-03T03:44:32;5.40;90.00
12604;DHT22;6367;52.508;13.284;2023-04-03T03:46:57;5.40;89.90
12604;DHT22;6367;52.508;13.284;2023-04-03T03:49:23;5.40;89.80
12604;DHT22;6367;52.508;13.284;2023-04-03T03:51:48;6.00;90.30
12604;DHT22;6367;52.508;13.284;2023-04-03T03:54:15;5.40;90.00
12604;DHT22;6367;52.508;13.284;2023-04-03T03:56:41;5.40;90.10
12604;DHT22;6367;52.508;13.284;2023-04-03T03:59:06;5.40;90.10
12604;DHT22;6367;52.508;13.284;2023-04-03T04:01:32;6.10;90.50
12604;DHT22;6367;52.508;13.284;2023-04-03T04:03:58;5.30;90.10
12604;DHT22;6367;52.508;13.284;2023-04-03T04:06:24;5.40;90.20
12604;DHT22;6367;52.508;13.284;2023-04-03T04:08:49;5.40;90.10
12604;DHT22;6367;52.508;13.284;2023-04-03T04:11:15;5.40;90.10
12604;DHT22;6367;52.508;13.284;2023-04-03T04:13:41;5.40;90.20
12604;DHT22;6367;52.508;13.284;2023-04-03T04:16:07;5.40;90.20
12604;DHT22;6367;52.508;13.284;2023-04-03T04:18:33;5.40;90.30
12604;DHT22;6367;52.508;13.284;2023-04-03T04:20:59;5.40;90.30
12604;DHT22;6367;52.508;13.284;2023-04-03T04:23:25;5.30;90.20
12604;DHT22;6367;52.508;13.284;2023-04-03T04:25:50;5.80;90.50
12604;DHT22;6367;52.508;13.284;2023-04-03T04:28:17;5.60;90.30
12604;DHT22;6367;52.508;13.284;2023-04-03T04:30:43;6.00;90.50
12604;DHT22;6367;52.508;13.284;2023-04-03T04:33:08;5.40;90.30
12604;DHT22;6367;52.508;13.284;2023-04-03T04:35:34;5.30;90.40
12604;DHT22;6367;52.508;13.284;2023-04-03T04:38:00;5.30;90.40
12604;DHT22;6367;52.508;13.284;2023-04-03T04:40:26;5.80;90.60
12604;DHT22;6367;52.508;13.284;2023-04-03T04:42:52;5.30;90.40
12604;DHT22;6367;52.508;13.284;2023-04-03T04:45:18;5.30;90.40
12604;DHT22;6367;52.508;13.284;2023-04-03T04:47:43;5.30;90.40
12604;DHT22;6367;52.508;13.284;2023-04-03T04:50:10;5.30;90.50
12604;DHT22;6367;52.508;13.284;2023-04-03T04:52:37;5.60;90.70
12604;DHT22;6367;52.508;13.284;2023-04-03T04:55:03;5.30;90.40
12604;DHT22;6367;52.508;13.284;2023-04-03T04:57:29;5.30;90.60
12604;DHT22;6367;52.508;13.284;2023-04-03T04:59:54;5.30;90.60
12604;DHT22;6367;52.508;13.284;2023-04-03T05:02:20;5.30;90.70
12604;DHT22;6367;52.508;13.284;2023-04-03T05:04:46;5.30;90.70
12604;DHT22;6367;52.508;13.284;2023-04-03T05:07:12;5.30;90.70
12604;DHT22;6367;52.508;13.284;2023-04-03T05:09:37;5.30;90.80
12604;DHT22;6367;52.508;13.284;2023-04-03T05:12:03;5.30;90.80
12604;DHT22;6367;52.508;13.284;2023-04-03T05:14:29;5.30;90.80
12604;DHT22;6367;52.508;13.284;2023-04-03T05:16:55;5.30;90.70
12604;DHT22;6367;52.508;13.284;2023-04-03T05:19:21;5.40;90.80
12604;DHT22;6367;52.508;13.284;2023-04-03T05:21:47;5.40;90.60
12604;DHT22;6367;52.508;13.284;2023-04-03T05:24:14;5.40;90.80
12604;DHT22;6367;52.508;13.284;2023-04-03T05:26:40;5.30;90.80
12604;DHT22;6367;52.508;13.284;2023-04-03T05:29:06;5.90;91.10
12604;DHT22;6367;52.508;13.284;2023-04-03T05:31:31;5.40;90.80
12604;DHT22;6367;52.508;13.284;2023-04-03T05:33:57;6.20;91.20
12604;DHT22;6367;52.508;13.284;2023-04-03T05:36:23;5.50;90.70
12604;DHT22;6367;52.508;13.284;2023-04-03T05:38:49;5.40;90.80
12604;DHT22;6367;52.508;13.284;2023-04-03T05:41:15;5.40;90.80
12604;DHT22;6367;52.508;13.284;2023-04-03T05:43:41;5.40;90.80
12604;DHT22;6367;52.508;13.284;2023-04-03T05:46:12;5.50;90.90
12604;DHT22;6367;52.508;13.284;2023-04-03T05:48:38;5.50;90.80
12604;DHT22;6367;52.508;13.284;2023-04-03T05:51:05;5.50;90.80
12604;DHT22;6367;52.508;13.284;2023-04-03T05:53:34;5.50;90.90
12604;DHT22;6367;52.508;13.284;2023-04-03T05:56:02;5.50;91.00
12604;DHT22;6367;52.508;13.284;2023-04-03T05:58:27;5.60;91.00
12604;DHT22;6367;52.508;13.284;2023-04-03T06:00:53;5.70;91.20
12604;DHT22;6367;52.508;13.284;2023-04-03T06:03:19;5.70;91.30
12604;DHT22;6367;52.508;13.284;2023-04-03T06:05:44;5.80;91.10
12604;DHT22;6367;52.508;13.284;2023-04-03T06:08:11;5.90;90.90
12604;DHT22;6367;52.508;13.284;2023-04-03T06:10:38;5.90;90.90
12604;DHT22;6367;52.508;13.284;2023-04-03T06:13:04;6.00;90.80
12604;DHT22;6367;52.508;13.284;2023-04-03T06:15:30;6.60;91.20
12604;DHT22;6367;52.508;13.284;2023-04-03T06:17:55;6.00;90.90
12604;DHT22;6367;52.508;13.284;2023-04-03T06:20:21;6.10;90.90
12604;DHT22;6367;52.508;13.284;2023-04-03T06:22:47;6.10;90.60
12604;DHT22;6367;52.508;13.284;2023-04-03T06:25:13;6.20;90.50
12604;DHT22;6367;52.508;13.284;2023-04-03T06:27:40;6.90;90.60
12604;DHT22;6367;52.508;13.284;2023-04-03T06:30:06;6.60;90.40
12604;DHT22;6367;52.508;13.284;2023-04-03T06:32:32;6.60;90.60
12604;DHT22;6367;52.508;13.284;2023-04-03T06:34:58;7.10;90.70
12604;DHT22;6367;52.508;13.284;2023-04-03T06:37:24;8.00;88.70
12604;DHT22;6367;52.508;13.284;2023-04-03T06:39:56;9.10;86.90
12604;DHT22;6367;52.508;13.284;2023-04-03T06:42:22;10.30;82.90
12604;DHT22;6367;52.508;13.284;2023-04-03T06:44:48;10.20;80.00
12604;DHT22;6367;52.508;13.284;2023-04-03T06:47:15;10.30;77.20
12604;DHT22;6367;52.508;13.284;2023-04-03T06:49:42;10.10;77.20
12604;DHT22;6367;52.508;13.284;2023-04-03T06:52:08;10.10;78.80
12604;DHT22;6367;52.508;13.284;2023-04-03T06:54:34;10.20;79.10
12604;DHT22;6367;52.508;13.284;2023-04-03T06:57:01;11.20;76.40
12604;DHT22;6367;52.508;13.284;2023-04-03T06:59:26;11.30;76.40
12604;DHT22;6367;52.508;13.284;2023-04-03T07:01:52;12.30;75.30
12604;DHT22;6367;52.508;13.284;2023-04-03T07:04:18;13.20;71.10
12604;DHT22;6367;52.508;13.284;2023-04-03T07:06:46;14.20;72.40
12604;DHT22;6367;52.508;13.284;2023-04-03T07:09:12;15.10;68.70
12604;DHT22;6367;52.508;13.284;2023-04-03T07:11:38;15.80;63.90
12604;DHT22;6367;52.508;13.284;2023-04-03T07:14:04;15.40;61.40
12604;DHT22;6367;52.508;13.284;2023-04-03T07:16:30;14.90;62.00
12604;DHT22;6367;52.508;13.284;2023-04-03T07:18:56;13.90;62.00
12604;DHT22;6367;52.508;13.284;2023-04-03T07:21:23;13.40;63.10
12604;DHT22;6367;52.508;13.284;2023-04-03T07:23:48;13.40;64.50
12604;DHT22;6367;52.508;13.284;2023-04-03T07:26:14;12.50;65.10
12604;DHT22;6367;52.508;13.284;2023-04-03T07:28:40;12.20;65.20
12604;DHT22;6367;52.508;13.284;2023-04-03T07:31:08;11.70;65.30
12604;DHT22;6367;52.508;13.284;2023-04-03T07:33:36;11.10;66.30
12604;DHT22;6367;52.508;13.284;2023-04-03T07:36:03;10.70;67.10
12604;DHT22;6367;52.508;13.284;2023-04-03T07:38:29;10.40;67.60
12604;DHT22;6367;52.508;13.284;2023-04-03T07:40:55;9.90;69.10
12604;DHT22;6367;52.508;13.284;2023-04-03T07:43:21;9.60;70.30
12604;DHT22;6367;52.508;13.284;2023-04-03T07:45:48;9.30;68.80
12604;DHT22;6367;52.508;13.284;2023-04-03T07:48:19;8.80;69.30
12604;DHT22;6367;52.508;13.284;2023-04-03T07:50:45;8.70;69.00
12604;DHT22;6367;52.508;13.284;2023-04-03T07:53:12;8.10;68.10
12604;DHT22;6367;52.508;13.284;2023-04-03T07:55:39;8.60;71.30
12604;DHT22;6367;52.508;13.284;2023-04-03T07:58:12;8.00;70.30
12604;DHT22;6367;52.508;13.284;2023-04-03T08:00:38;8.00;69.90
12604;DHT22;6367;52.508;13.284;2023-04-03T08:03:05;8.00;71.60
12604;DHT22;6367;52.508;13.284;2023-04-03T08:05:31;8.30;70.70
12604;DHT22;6367;52.508;13.284;2023-04-03T08:07:57;8.20;69.20
12604;DHT22;6367;52.508;13.284;2023-04-03T08:10:22;8.70;69.80
12604;DHT22;6367;52.508;13.284;2023-04-03T08:12:48;7.90;70.00
12604;DHT22;6367;52.508;13.284;2023-04-03T08:15:14;8.40;70.30
12604;DHT22;6367;52.508;13.284;2023-04-03T08:17:40;7.80;70.80
12604;DHT22;6367;52.508;13.284;2023-04-03T08:20:07;8.40;70.80
12604;DHT22;6367;52.508;13.284;2023-04-03T08:22:34;7.70;70.40
12604;DHT22;6367;52.508;13.284;2023-04-03T08:24:59;7.80;71.00
12604;DHT22;6367;52.508;13.284;2023-04-03T08:27:26;8.40;69.30
12604;DHT22;6367;52.508;13.284;2023-04-03T08:29:52;7.80;68.60
12604;DHT22;6367;52.508;13.284;2023-04-03T08:32:18;7.60;68.50
12604;DHT22;6367;52.508;13.284;2023-04-03T08:34:44;7.30;69.80
12604;DHT22;6367;52.508;13.284;2023-04-03T08:37:10;7.30;71.20
12604;DHT22;6367;52.508;13.284;2023-04-03T08:39:36;7.30;71.10
12604;DHT22;6367;52.508;13.284;2023-04-03T08:42:11;7.30;70.30
12604;DHT22;6367;52.508;13.284;2023-04-03T08:47:13;7.10;70.00
12604;DHT22;6367;52.508;13.284;2023-04-03T08:49:59;7.00;70.90
12604;DHT22;6367;52.508;13.284;2023-04-03T08:52:47;7.10;72.00
12604;DHT22;6367;52.508;13.284;2023-04-03T08:55:26;7.00;70.80
12604;DHT22;6367;52.508;13.284;2023-04-03T08:58:04;7.20;71.80
12604;DHT22;6367;52.508;13.284;2023-04-03T09:00:41;6.90;71.30
12604;DHT22;6367;52.508;13.284;2023-04-03T09:03:18;7.00;71.10
12604;DHT22;6367;52.508;13.284;2023-04-03T09:11:36;7.50;72.50
12604;DHT22;6367;52.508;13.284;2023-04-03T09:14:34;7.70;72.70
12604;DHT22;6367;52.508;13.284;2023-04-03T09:17:21;7.90;70.40
12604;DHT22;6367;52.508;13.284;2023-04-03T09:19:56;7.80;70.30
12604;DHT22;6367;52.508;13.284;2023-04-03T09:22:25;7.70;71.20
12604;DHT22;6367;52.508;13.284;2023-04-03T09:27:34;8.10;71.30
12604;DHT22;6367;52.508;13.284;2023-04-03T09:30:00;8.20;70.70
12604;DHT22;6367;52.508;13.284;2023-04-03T09:32:34;8.20;70.30
12604;DHT22;6367;52.508;13.284;2023-04-03T09:37:42;8.50;70.30
12604;DHT22;6367;52.508;13.284;2023-04-03T09:40:28;8.70;70.50
12604;DHT22;6367;52.508;13.284;2023-04-03T09:42:58;8.70;70.70
12604;DHT22;6367;52.508;13.284;2023-04-03T09:45:29;9.20;70.40
12604;DHT22;6367;52.508;13.284;2023-04-03T09:48:15;9.20;68.20
12604;DHT22;6367;52.508;13.284;2023-04-03T09:53:35;9.80;66.00
12604;DHT22;6367;52.508;13.284;2023-04-03T09:58:45;10.10;64.70
12604;DHT22;6367;52.508;13.284;2023-04-03T10:01:41;10.30;62.50
12604;DHT22;6367;52.508;13.284;2023-04-03T10:04:14;10.10;60.40
12604;DHT22;6367;52.508;13.284;2023-04-03T10:06:44;9.80;63.90
12604;DHT22;6367;52.508;13.284;2023-04-03T10:14:28;8.80;63.40
12604;DHT22;6367;52.508;13.284;2023-04-03T10:17:18;8.50;64.30
12604;DHT22;6367;52.508;13.284;2023-04-03T10:20:18;8.30;65.90
12604;DHT22;6367;52.508;13.284;2023-04-03T10:23:26;8.50;67.00
12604;DHT22;6367;52.508;13.284;2023-04-03T10:29:06;8.70;65.20
12604;DHT22;6367;52.508;13.284;2023-04-03T10:34:18;9.50;66.70
12604;DHT22;6367;52.508;13.284;2023-04-03T10:37:05;9.20;64.90
12604;DHT22;6367;52.508;13.284;2023-04-03T10:39:45;9.00;62.80
12604;DHT22;6367;52.508;13.284;2023-04-03T10:53:17;9.40;63.50
12604;DHT22;6367;52.508;13.284;2023-04-03T10:56:03;9.60;63.40
12604;DHT22;6367;52.508;13.284;2023-04-03T11:01:21;9.80;61.60
12604;DHT22;6367;52.508;13.284;2023-04-03T11:03:51;9.80;61.00
12604;DHT22;6367;52.508;13.284;2023-04-03T11:06:19;9.60;61.50
12604;DHT22;6367;52.508;13.284;2023-04-03T11:08:51;9.20;61.10
12604;DHT22;6367;52.508;13.284;2023-04-03T11:11:25;9.50;60.90
12604;DHT22;6367;52.508;13.284;2023-04-03T11:14:00;10.00;61.70
12604;DHT22;6367;52.508;13.284;2023-04-03T11:16:30;9.30;61.00
12604;DHT22;6367;52.508;13.284;2023-04-03T11:19:11;9.20;62.50
12604;DHT22;6367;52.508;13.284;2023-04-03T11:21:46;9.30;63.50
12604;DHT22;6367;52.508;13.284;2023-04-03T11:24:22;9.50;63.40
12604;DHT22;6367;52.508;13.284;2023-04-03T11:26:49;9.60;63.50
12604;DHT22;6367;52.508;13.284;2023-04-03T11:29:19;9.70;62.70
12604;DHT22;6367;52.508;13.284;2023-04-03T11:32:04;9.60;62.40
12604;DHT22;6367;52.508;13.284;2023-04-03T11:34:40;9.80;63.00
12604;DHT22;6367;52.508;13.284;2023-04-03T11:37:30;9.70;62.70
12604;DHT22;6367;52.508;13.284;2023-04-03T11:40:18;9.70;63.10
12604;DHT22;6367;52.508;13.284;2023-04-03T11:42:49;9.80;63.10
12604;DHT22;6367;52.508;13.284;2023-04-03T11:47:53;9.80;63.40
12604;DHT22;6367;52.508;13.284;2023-04-03T12:22:04;9.60;65.20
12604;DHT22;6367;52.508;13.284;2023-04-03T12:24:27;9.30;64.90
12604;DHT22;6367;52.508;13.284;2023-04-03T12:46:18;9.30;66.90
12604;DHT22;6367;52.508;13.284;2023-04-03T12:51:37;9.30;65.60
12604;DHT22;6367;52.508;13.284;2023-04-03T12:54:15;9.20;64.10
12604;DHT22;6367;52.508;13.284;2023-04-03T12:56:41;9.20;64.30
12604;DHT22;6367;52.508;13.284;2023-04-03T12:59:19;9.10;62.70
12604;DHT22;6367;52.508;13.284;2023-04-03T13:01:57;9.10;64.20
12604;DHT22;6367;52.508;13.284;2023-04-03T13:04:23;9.40;64.20
12604;DHT22;6367;52.508;13.284;2023-04-03T13:06:49;9.40;62.40
12604;DHT22;6367;52.508;13.284;2023-04-03T13:09:24;9.40;65.00
12604;DHT22;6367;52.508;13.284;2023-04-03T13:14:35;9.40;63.80
12604;DHT22;6367;52.508;13.284;2023-04-03T13:17:12;9.60;64.40
12604;DHT22;6367;52.508;13.284;2023-04-03T13:19:38;9.60;64.40
12604;DHT22;6367;52.508;13.284;2023-04-03T13:22:08;9.60;64.80
12604;DHT22;6367;52.508;13.284;2023-04-03T13:24:37;9.80;64.70
12604;DHT22;6367;52.508;13.284;2023-04-03T13:27:04;9.80;64.50
12604;DHT22;6367;52.508;13.284;2023-04-03T13:29:36;9.90;64.50
12604;DHT22;6367;52.508;13.284;2023-04-03T13:32:03;9.90;64.80
12604;DHT22;6367;52.508;13.284;2023-04-03T13:34:36;9.90;65.20
12604;DHT22;6367;52.508;13.284;2023-04-03T13:37:02;9.80;65.70
12604;DHT22;6367;52.508;13.284;2023-04-03T13:39:34;9.70;66.00
12604;DHT22;6367;52.508;13.284;2023-04-03T13:42:14;9.70;65.30
12604;DHT22;6367;52.508;13.284;2023-04-03T13:44:40;9.70;66.10
12604;DHT22;6367;52.508;13.284;2023-04-03T13:47:19;9.60;66.80
12604;DHT22;6367;52.508;13.284;2023-04-03T13:50:19;9.60;66.00
12604;DHT22;6367;52.508;13.284;2023-04-03T13:52:53;9.60;65.10
12604;DHT22;6367;52.508;13.284;2023-04-03T13:55:25;9.30;65.40
12604;DHT22;6367;52.508;13.284;2023-04-03T13:57:59;9.30;66.20
12604;DHT22;6367;52.508;13.284;2023-04-03T14:00:36;9.20;66.20
12604;DHT22;6367;52.508;13.284;2023-04-03T14:03:24;9.20;66.50
12604;DHT22;6367;52.508;13.284;2023-04-03T14:05:50;9.20;67.00
12604;DHT22;6367;52.508;13.284;2023-04-03T14:08:17;9.30;67.40
12604;DHT22;6367;52.508;13.284;2023-04-03T14:10:43;9.30;67.10
12604;DHT22;6367;52.508;13.284;2023-04-03T14:13:14;9.30;66.90
12604;DHT22;6367;52.508;13.284;2023-04-03T14:15:40;9.30;67.00
12604;DHT22;6367;52.508;13.284;2023-04-03T14:18:06;9.40;67.20
12604;DHT22;6367;52.508;13.284;2023-04-03T14:20:32;9.40;67.50
12604;DHT22;6367;52.508;13.284;2023-04-03T14:22:57;10.00;66.80
12604;DHT22;6367;52.508;13.284;2023-04-03T14:25:23;9.60;67.60
12604;DHT22;6367;52.508;13.284;2023-04-03T14:27:52;9.50;68.50
12604;DHT22;6367;52.508;13.284;2023-04-03T14:30:26;9.60;68.20
12604;DHT22;6367;52.508;13.284;2023-04-03T14:32:52;9.60;67.30
12604;DHT22;6367;52.508;13.284;2023-04-03T14:35:18;10.20;66.80
12604;DHT22;6367;52.508;13.284;2023-04-03T14:37:44;9.70;67.50
12604;DHT22;6367;52.508;13.284;2023-04-03T14:40:16;9.70;66.20
12604;DHT22;6367;52.508;13.284;2023-04-03T14:42:43;9.80;67.10
12604;DHT22;6367;52.508;13.284;2023-04-03T14:45:11;9.80;67.30
12604;DHT22;6367;52.508;13.284;2023-04-03T14:47:42;9.80;66.70
12604;DHT22;6367;52.508;13.284;2023-04-03T14:50:16;9.80;66.00
12604;DHT22;6367;52.508;13.284;2023-04-03T14:52:42;9.90;66.40
12604;DHT22;6367;52.508;13.284;2023-04-03T14:55:09;10.00;65.20
12604;DHT22;6367;52.508;13.284;2023-04-03T14:57:35;10.10;65.30
12604;DHT22;6367;52.508;13.284;2023-04-03T15:00:01;10.10;65.60
12604;DHT22;6367;52.508;13.284;2023-04-03T15:04:58;10.20;65.60
12604;DHT22;6367;52.508;13.284;2023-04-03T15:07:27;10.10;66.20
12604;DHT22;6367;52.508;13.284;2023-04-03T15:09:54;10.10;66.30
12604;DHT22;6367;52.508;13.284;2023-04-03T15:12:22;10.00;66.40
12604;DHT22;6367;52.508;13.284;2023-04-03T15:14:48;10.00;66.50
12604;DHT22;6367;52.508;13.284;2023-04-03T15:17:20;9.90;68.00
12604;DHT22;6367;52.508;13.284;2023-04-03T15:19:46;9.90;68.80
12604;DHT22;6367;52.508;13.284;2023-04-03T15:22:18;9.90;70.10
12604;DHT22;6367;52.508;13.284;2023-04-03T15:24:44;9.80;70.20
12604;DHT22;6367;52.508;13.284;2023-04-03T15:27:11;9.70;69.10
12604;DHT22;6367;52.508;13.284;2023-04-03T15:29:38;9.70;69.50
12604;DHT22;6367;52.508;13.284;2023-04-03T15:32:05;9.60;70.30
12604;DHT22;6367;52.508;13.284;2023-04-03T15:34:31;9.50;70.70
12604;DHT22;6367;52.508;13.284;2023-04-03T15:36:57;9.50;70.50
12604;DHT22;6367;52.508;13.284;2023-04-03T15:39:24;9.40;71.00
12604;DHT22;6367;52.508;13.284;2023-04-03T15:41:51;9.40;71.60
12604;DHT22;6367;52.508;13.284;2023-04-03T15:44:18;9.30;71.80
12604;DHT22;6367;52.508;13.284;2023-04-03T15:46:47;9.30;71.80
12604;DHT22;6367;52.508;13.284;2023-04-03T15:49:17;9.20;72.30
12604;DHT22;6367;52.508;13.284;2023-04-03T15:51:44;9.20;72.50
12604;DHT22;6367;52.508;13.284;2023-04-03T15:54:10;9.20;72.80
12604;DHT22;6367;52.508;13.284;2023-04-03T15:56:35;9.20;73.00
12604;DHT22;6367;52.508;13.284;2023-04-03T15:59:01;9.20;73.00
12604;DHT22;6367;52.508;13.284;2023-04-03T16:01:27;9.30;73.10
12604;DHT22;6367;52.508;13.284;2023-04-03T16:03:53;9.20;73.20
12604;DHT22;6367;52.508;13.284;2023-04-03T16:06:19;9.30;72.40
12604;DHT22;6367;52.508;13.284;2023-04-03T16:08:45;9.20;72.80
12604;DHT22;6367;52.508;13.284;2023-04-03T16:11:12;9.20;72.80
12604;DHT22;6367;52.508;13.284;2023-04-03T16:13:37;9.60;73.00
12604;DHT22;6367;52.508;13.284;2023-04-03T16:16:03;9.30;72.10
12604;DHT22;6367;52.508;13.284;2023-04-03T16:18:30;9.30;71.80
12604;DHT22;6367;52.508;13.284;2023-04-03T16:20:56;9.30;71.40
12604;DHT22;6367;52.508;13.284;2023-04-03T16:23:22;9.30;71.60
12604;DHT22;6367;52.508;13.284;2023-04-03T16:25:48;8.10;70.50
12604;DHT22;6367;52.508;13.284;2023-04-03T16:28:16;9.10;72.10
12604;DHT22;6367;52.508;13.284;2023-04-03T16:30:44;9.20;73.10
12604;DHT22;6367;52.508;13.284;2023-04-03T16:33:11;9.20;73.00
12604;DHT22;6367;52.508;13.284;2023-04-03T16:35:37;9.20;73.10
12604;DHT22;6367;52.508;13.284;2023-04-03T16:38:04;9.20;73.20
12604;DHT22;6367;52.508;13.284;2023-04-03T16:40:29;9.10;73.30
12604;DHT22;6367;52.508;13.284;2023-04-03T16:42:55;9.20;73.60
12604;DHT22;6367;52.508;13.284;2023-04-03T16:45:21;9.20;74.00
12604;DHT22;6367;52.508;13.284;2023-04-03T16:47:47;9.30;75.00
12604;DHT22;6367;52.508;13.284;2023-04-03T16:50:12;9.20;75.40
12604;DHT22;6367;52.508;13.284;2023-04-03T16:52:38;9.30;75.70
12604;DHT22;6367;52.508;13.284;2023-04-03T16:55:04;9.40;75.80
12604;DHT22;6367;52.508;13.284;2023-04-03T16:57:30;9.40;76.20
12604;DHT22;6367;52.508;13.284;2023-04-03T16:59:56;9.40;76.90
12604;DHT22;6367;52.508;13.284;2023-04-03T17:02:22;9.30;76.60
12604;DHT22;6367;52.508;13.284;2023-04-03T17:04:50;9.30;75.80
12604;DHT22;6367;52.508;13.284;2023-04-03T17:07:18;9.30;75.70
12604;DHT22;6367;52.508;13.284;2023-04-03T17:09:44;9.20;75.40
12604;DHT22;6367;52.508;13.284;2023-04-03T17:12:09;9.10;75.50
12604;DHT22;6367;52.508;13.284;2023-04-03T17:14:35;9.90;76.70
12604;DHT22;6367;52.508;13.284;2023-04-03T17:17:01;9.00;76.40
12604;DHT22;6367;52.508;13.284;2023-04-03T17:19:28;9.00;77.50
12604;DHT22;6367;52.508;13.284;2023-04-03T17:21:53;9.00;77.20
12604;DHT22;6367;52.508;13.284;2023-04-03T17:24:20;8.80;76.80
12604;DHT22;6367;52.508;13.284;2023-04-03T17:26:46;8.80;76.70
12604;DHT22;6367;52.508;13.284;2023-04-03T17:29:11;8.80;76.40
12604;DHT22;6367;52.508;13.284;2023-04-03T17:31:37;8.90;76.40
12604;DHT22;6367;52.508;13.284;2023-04-03T17:34:03;8.90;76.20
12604;DHT22;6367;52.508;13.284;2023-04-03T17:36:30;8.80;76.10
12604;DHT22;6367;52.508;13.284;2023-04-03T17:38:56;9.00;76.60
12604;DHT22;6367;52.508;13.284;2023-04-03T17:41:22;8.80;76.10
12604;DHT22;6367;52.508;13.284;2023-04-03T17:43:48;8.70;76.20